createdAt,value
2022-08-26T00:02:54.395Z,53.5
2022-08-26T00:08:34.810Z,53.4
2022-08-26T00:14:44.715Z,53.4
2022-08-26T00:20:37.380Z,53.4
2022-08-26T00:26:15.581Z,53.3
2022-08-26T00:32:10.267Z,53.3
2022-08-26T00:37:16.113Z,53.3
2022-08-26T00:42:26.335Z,53.3
2022-08-26T00:48:26.883Z,53.2
2022-08-26T00:54:30.750Z,53.2
2022-08-26T01:00:07.367Z,53.1
2022-08-26T01:05:50.036Z,53.1
2022-08-26T01:11:24.651Z,53.1
2022-08-26T01:17:15.233Z,53.1
2022-08-26T01:23:03.193Z,53
2022-08-26T01:28:56.995Z,52.9
2022-08-26T01:34:49.186Z,52.9
2022-08-26T01:40:37.339Z,52.9
2022-08-26T01:46:30.668Z,52.9
2022-08-26T01:52:30.916Z,52.8
2022-08-26T01:58:49.067Z,52.8
2022-08-26T02:04:31.862Z,52.8
2022-08-26T02:10:30.514Z,52.7
2022-08-26T02:16:12.160Z,52.7
2022-08-26T02:21:58.821Z,52.6
2022-08-26T02:27:28.100Z,52.6
2022-08-26T02:33:25.065Z,52.6
2022-08-26T02:39:08.577Z,52.6
2022-08-26T02:44:58.427Z,52.5
2022-08-26T02:50:53.614Z,52.5
2022-08-26T02:56:21.060Z,52.4
2022-08-26T03:02:16.173Z,52.4
2022-08-26T03:13:49.196Z,52.3
2022-08-26T03:19:42.779Z,52.3
2022-08-26T03:25:09.411Z,52.3
2022-08-26T03:31:01.844Z,52.3
2022-08-26T03:36:46.889Z,52.2
2022-08-26T03:42:13.321Z,52.1
2022-08-26T03:47:55.442Z,52.1
2022-08-26T03:53:53.268Z,52.1
2022-08-26T03:59:34.805Z,52.1
2022-08-26T04:05:23.848Z,52
2022-08-26T04:11:07.657Z,52
2022-08-26T04:16:39.283Z,52
2022-08-26T04:28:07.017Z,51.9
2022-08-26T04:34:06.283Z,51.9
2022-08-26T04:39:49.177Z,51.8
2022-08-26T04:45:26.604Z,51.8
2022-08-26T04:51:17.683Z,51.8
2022-08-26T04:57:18.072Z,51.8
2022-08-26T05:03:02.873Z,51.7
2022-08-26T05:08:27.673Z,51.7
2022-08-26T05:14:18.934Z,51.6
2022-08-26T05:20:11.725Z,51.6
2022-08-26T05:25:50.142Z,51.6
2022-08-26T05:31:19.740Z,51.5
2022-08-26T05:37:10.859Z,51.5
2022-08-26T05:42:45.730Z,51.4
2022-08-26T05:48:44.321Z,51.4
2022-08-26T05:54:28.137Z,51.4
2022-08-26T06:00:22.981Z,51.4
2022-08-26T06:06:12.213Z,51.3
2022-08-26T06:12:26.547Z,51.3
2022-08-26T06:18:24.977Z,51.3
2022-08-26T06:24:15.493Z,51.2
2022-08-26T06:30:13.852Z,51.2
2022-08-26T06:36:01.787Z,51.1
2022-08-26T06:41:49.388Z,51.1
2022-08-26T06:47:34.185Z,51.1
2022-08-26T06:53:18.495Z,51.1
2022-08-26T06:59:07.231Z,51
2022-08-26T07:05:07.690Z,51
2022-08-26T07:10:58.091Z,50.9
2022-08-26T07:17:00.493Z,50.9
2022-08-26T07:22:59.247Z,50.9
2022-08-26T07:28:44.930Z,50.9
2022-08-26T07:34:36.806Z,50.8
2022-08-26T07:40:33.026Z,50.8
2022-08-26T07:46:20.903Z,50.8
2022-08-26T07:52:29.098Z,50.8
2022-08-26T07:58:15.418Z,50.7
2022-08-26T08:04:10.261Z,50.6
2022-08-26T08:10:48.297Z,50.6
2022-08-26T08:16:15.158Z,50.6
2022-08-26T08:22:34.420Z,50.6
2022-08-26T08:28:23.764Z,50.5
2022-08-26T08:34:34.706Z,50.4
2022-08-26T08:40:22.465Z,50.4
2022-08-26T08:46:09.749Z,50.4
2022-08-26T08:51:55.132Z,50.4
2022-08-26T08:57:53.728Z,50.3
2022-08-26T09:03:39.954Z,50.3
2022-08-26T09:09:34.846Z,50.3
2022-08-26T09:15:27.494Z,50.3
2022-08-26T09:21:02.021Z,50.3
2022-08-26T09:27:04.468Z,50.2
2022-08-26T09:32:55.837Z,50.2
2022-08-26T09:38:45.319Z,50.1
2022-08-26T09:44:47.925Z,50.1
2022-08-26T09:50:45.135Z,50.1
2022-08-26T09:56:27.789Z,50.1
2022-08-26T10:02:13.121Z,50
2022-08-26T10:08:01.860Z,49.9
2022-08-26T10:13:46.163Z,49.9
2022-08-26T10:19:56.412Z,49.9
2022-08-26T10:25:54.465Z,49.9
2022-08-26T10:31:58.851Z,49.9
2022-08-26T10:38:22.798Z,49.8
2022-08-26T10:44:15.410Z,49.7
2022-08-26T10:50:03.091Z,49.6
2022-08-26T10:56:15.631Z,49.6
2022-08-26T11:02:00.041Z,49.6
2022-08-26T11:08:06.049Z,49.5
2022-08-26T11:13:59.211Z,49.6
2022-08-26T11:20:16.006Z,49.9
2022-08-26T11:26:32.815Z,50.2
2022-08-26T11:32:38.728Z,50.3
2022-08-26T11:38:30.678Z,50.4
2022-08-26T11:44:22.135Z,50.6
2022-08-26T11:50:08.158Z,50.9
2022-08-26T11:55:58.299Z,51.3
2022-08-26T12:02:00.884Z,51.6
2022-08-26T12:12:52.729Z,52.3
2022-08-26T12:18:29.065Z,52.7
2022-08-26T12:24:14.481Z,53.1
2022-08-26T12:30:25.988Z,53.5
2022-08-26T12:36:33.152Z,53.9
2022-08-26T12:42:02.338Z,54.3
2022-08-26T12:47:32.786Z,54.4
2022-08-26T12:53:19.585Z,54.7
2022-08-26T12:58:41.750Z,54.9
2022-08-26T13:04:29.404Z,55.1
2022-08-26T13:10:12.716Z,55.2
2022-08-26T13:15:48.448Z,55.4
2022-08-26T13:21:11.408Z,55.5
2022-08-26T13:26:58.230Z,55.6
2022-08-26T13:32:34.482Z,55.7
2022-08-26T13:38:08.995Z,55.8
2022-08-26T13:44:12.310Z,55.8
2022-08-26T13:49:50.853Z,55.8
2022-08-26T13:55:38.310Z,55.8
2022-08-26T14:01:20.040Z,55.8
2022-08-26T14:06:46.104Z,55.8
2022-08-26T14:12:27.968Z,55.8
2022-08-26T14:18:23.075Z,55.8
2022-08-26T14:24:35.532Z,55.8
2022-08-26T14:30:12.353Z,55.7
2022-08-26T14:35:49.826Z,55.6
2022-08-26T14:41:29.642Z,55.6
2022-08-26T14:47:33.921Z,55.6
2022-08-26T14:53:14.628Z,55.6
2022-08-26T14:58:54.065Z,55.6
2022-08-26T15:04:47.883Z,55.6
2022-08-26T15:10:25.613Z,55.5
2022-08-26T15:15:59.485Z,55.4
2022-08-26T15:21:37.015Z,55.4
2022-08-26T15:27:04.562Z,55.4
2022-08-26T15:32:47.186Z,55.4
2022-08-26T15:38:34.262Z,55.3
2022-08-26T15:44:36.567Z,55.3
2022-08-26T15:50:40.306Z,55.3
2022-08-26T15:56:25.465Z,55.3
2022-08-26T16:02:17.479Z,55.3
2022-08-26T16:07:54.793Z,55.2
2022-08-26T16:13:55.983Z,55.1
2022-08-26T16:19:38.536Z,55.1
2022-08-26T16:25:36.698Z,55.1
2022-08-26T16:31:19.428Z,55.1
2022-08-26T16:37:09.513Z,55
2022-08-26T16:42:52.175Z,55
2022-08-26T16:48:37.515Z,54.9
2022-08-26T16:54:17.664Z,54.9
2022-08-26T17:00:00.860Z,54.9
2022-08-26T17:05:39.688Z,54.9
2022-08-26T17:11:20.660Z,54.8
2022-08-26T17:17:16.576Z,54.8
2022-08-26T17:23:07.086Z,54.8
2022-08-26T17:28:34.671Z,54.8
2022-08-26T17:33:47.817Z,54.7
2022-08-26T17:39:28.188Z,54.7
2022-08-26T17:44:51.561Z,54.6
2022-08-26T17:50:38.179Z,54.6
2022-08-26T18:01:27.428Z,54.6
2022-08-26T18:07:08.379Z,54.6
2022-08-26T18:12:32.731Z,54.5
2022-08-26T18:18:05.768Z,54.4
2022-08-26T18:23:38.307Z,54.4
2022-08-26T18:29:29.319Z,54.4
2022-08-26T18:35:09.796Z,54.4
2022-08-26T18:40:40.017Z,54.3
2022-08-26T18:46:05.386Z,54.3
2022-08-26T18:51:45.981Z,54.3
2022-08-26T18:57:24.531Z,54.3
2022-08-26T19:02:58.266Z,54.3
2022-08-26T19:08:35.091Z,54.2
2022-08-26T19:14:31.453Z,54.1
2022-08-26T19:20:14.035Z,54.1
2022-08-26T19:26:07.342Z,54.1
2022-08-26T19:31:50.785Z,54.1
2022-08-26T19:37:20.751Z,54
2022-08-26T19:43:00.099Z,54
2022-08-26T19:48:32.563Z,53.9
2022-08-26T19:54:15.937Z,53.9
2022-08-26T19:59:41.782Z,53.9
2022-08-26T20:05:28.532Z,53.9
2022-08-26T20:11:33.108Z,53.8
2022-08-26T20:17:13.085Z,53.8
2022-08-26T20:23:21.503Z,53.8
2022-08-26T20:28:47.764Z,53.8
2022-08-26T20:34:18.891Z,53.7
2022-08-26T20:39:59.897Z,53.7
2022-08-26T20:45:20.323Z,53.7
2022-08-26T20:51:14.803Z,53.6
2022-08-26T20:56:40.676Z,53.6
2022-08-26T21:02:15.271Z,53.6
2022-08-26T21:07:58.393Z,53.5
2022-08-26T21:13:25.106Z,53.5
2022-08-26T21:19:25.021Z,53.4
2022-08-26T21:25:10.391Z,53.4
2022-08-26T21:30:37.760Z,53.4
2022-08-26T21:36:16.191Z,53.4
2022-08-26T21:42:01.901Z,53.3
2022-08-26T21:47:49.344Z,53.3
2022-08-26T21:53:28.087Z,53.3
2022-08-26T21:59:08.916Z,53.3
2022-08-26T22:04:52.923Z,53.2
2022-08-26T22:10:01.053Z,53.2
2022-08-26T22:15:06.999Z,53.1
2022-08-26T22:20:49.774Z,53.1
2022-08-26T22:26:16.540Z,53.1
2022-08-26T22:32:10.628Z,53.1
2022-08-26T22:38:06.455Z,53
2022-08-26T22:43:49.838Z,53
2022-08-26T22:49:15.072Z,52.9
2022-08-26T22:54:58.158Z,52.9
2022-08-26T23:00:48.568Z,52.9
2022-08-26T23:06:11.107Z,52.9
2022-08-26T23:11:52.185Z,52.8
2022-08-26T23:17:15.311Z,52.8
2022-08-26T23:22:31.038Z,52.8
2022-08-26T23:27:47.272Z,52.8
2022-08-26T23:33:08.509Z,52.8
2022-08-26T23:38:54.504Z,52.7
2022-08-26T23:44:36.245Z,52.6
2022-08-26T23:50:15.443Z,52.6
2022-08-26T23:55:20.622Z,52.6
